KBNO/BNO METAR and TAF weather

Enter ICAO airport designator
Station Type Date Time Source
KBNO METAR 2019/02/23 16:53 UTC NOAA

KBNO 231653Z AUTO 20013G17KT 10SM SCT065 01/M06 A3006 RMK AO2 SNB27E37 SLP203 P0000 T00061056


Station Type Date Time Source
KBNO Decoded METAR 2019/02/23 16:53 UTC NOAA

BURNS MUNICIPAL AIRPORT, OR, United States (KBNO) 43-36N 118-57W 1264M
Feb 23, 2019 - 11:53 AM EST / 2019.02.23 1653 UTC
Wind: from the SSW (200 degrees) at 15 MPH (13 KT) gusting to 20 MPH (17 KT):0
Visibility: 10 mile(s):0
Sky conditions: partly cloudy
Precipitation last hour: A trace
Temperature: 33.1 F (0.6 C)
Windchill: 23 F (-5 C):1
Dew Point: 21.9 F (-5.6 C)
Relative Humidity: 63%
Pressure (altimeter): 30.06 in. Hg (1017 hPa)
ob: KBNO 231653Z AUTO 20013G17KT 10SM SCT065 01/M06 A3006 RMK AO2 SNB27E37 SLP203 P0000 T00061056
cycle: 17

Station Type Date Time Source
KBNO TAF 2019/02/23 12:36 UTC NOAA

TAF KBNO 231134Z 2312/2412 19006KT P6SM VCSH OVC045
FM231800 22008KT 4SM -SN BR OVC025
FM240300 22005KT P6SM VCSH OVC035


Example: see airport list